Time;durP1;ratioP1;P1;durP2;ratioP2;P2;SDS_P1;SDS_P2;PMS_P1;PMS_P2;Temp;Humidity;BMP_temperature;BMP_pressure;BME280_temperature;BME280_humidity;BME280_pressure;Samples;Min_cycle;Max_cycle;Signal;HPM_P1;HPM_P2
2023/04/03 00:00:49;;;;;;;;;;;;;;;18.96;42.46;100171.61;103056;1294;61490;-84
2023/04/03 00:03:15;;;;;;;;;;;;;;;18.96;42.66;100179.59;103063;1293;74548;-84
2023/04/03 00:05:41;;;;;;;;;;;;;;;18.95;42.61;100182.14;103037;1298;61384;-83
2023/04/03 00:08:09;;;;;;;;;;;;;;;18.95;42.62;100181.43;103111;1293;61522;-84
2023/04/03 00:10:35;;;;;;;;;;;;;;;18.95;42.63;100178.40;103095;1292;61423;-84
2023/04/03 00:13:01;;;;;;;;;;;;;;;18.95;42.69;100181.63;103801;1292;61416;-84
2023/04/03 00:15:27;;;;;;;;;;;;;;;18.95;42.57;100175.08;103803;1286;61400;-83
2023/04/03 00:17:52;;;;;;;;;;;;;;;18.94;42.58;100174.00;103814;1290;61390;-84
2023/04/03 00:20:19;;;;;;;;;;;;;;;18.94;42.67;100169.02;103760;1291;61268;-84
2023/04/03 00:22:45;;;;;;;;;;;;;;;18.93;42.68;100164.41;103852;1286;61412;-83
2023/04/03 00:25:11;;;;;;;;;;;;;;;18.94;42.66;100165.12;103879;1286;61323;-84
2023/04/03 00:27:37;;;;;;;;;;;;;;;18.93;42.76;100166.40;103701;1286;62508;-85
2023/04/03 00:30:03;;;;;;;;;;;;;;;18.93;42.70;100165.67;103832;1292;61393;-83
2023/04/03 00:32:28;;;;;;;;;;;;;;;18.93;42.74;100166.23;103841;1289;73240;-85
2023/04/03 00:34:54;;;;;;;;;;;;;;;18.93;42.69;100163.56;103781;1290;61948;-83
2023/04/03 00:37:20;;;;;;;;;;;;;;;18.92;42.71;100166.27;103787;1286;61445;-84
2023/04/03 00:39:48;;;;;;;;;;;;;;;18.92;42.75;100168.40;103860;1286;61764;-84
2023/04/03 00:42:13;;;;;;;;;;;;;;;18.92;42.91;100170.21;103875;1290;61324;-84
2023/04/03 00:44:39;;;;;;;;;;;;;;;18.92;42.70;100169.51;103773;1292;61387;-84
2023/04/03 00:47:07;;;;;;;;;;;;;;;18.92;42.69;100167.20;103756;1286;61382;-84
2023/04/03 00:49:33;;;;;;;;;;;;;;;18.92;42.75;100163.25;103702;1291;61374;-84
2023/04/03 00:51:58;;;;;;;;;;;;;;;18.92;42.83;100167.56;103804;1292;61348;-84
2023/04/03 00:54:24;;;;;;;;;;;;;;;18.91;42.72;100170.64;103729;1286;61756;-83
2023/04/03 00:56:51;;;;;;;;;;;;;;;18.91;42.75;100178.30;103823;1291;62421;-83
2023/04/03 00:59:18;;;;;;;;;;;;;;;18.91;42.77;100176.20;103607;1292;61343;-84
2023/04/03 01:01:43;;;;;;;;;;;;;;;18.91;42.68;100177.78;103784;1286;61393;-83
2023/04/03 01:04:26;;;;;;;;;;;;;;;18.91;42.95;100179.03;103823;1286;61314;-83
2023/04/03 01:06:52;;;;;;;;;;;;;;;18.91;42.77;100182.07;103766;1291;75515;-83
2023/04/03 01:09:17;;;;;;;;;;;;;;;18.90;42.85;100183.02;103812;1291;61383;-84
2023/04/03 01:11:43;;;;;;;;;;;;;;;18.90;42.72;100186.59;103760;1292;61864;-83
2023/04/03 01:14:08;;;;;;;;;;;;;;;18.90;42.75;100186.95;103751;1291;61378;-83
2023/04/03 01:16:34;;;;;;;;;;;;;;;18.90;42.80;100187.45;103835;1286;61426;-83
2023/04/03 01:19:00;;;;;;;;;;;;;;;18.90;42.83;100184.30;103784;1287;75575;-84
2023/04/03 01:21:26;;;;;;;;;;;;;;;18.90;42.77;100181.43;103833;1289;61392;-84
2023/04/03 01:24:08;;;;;;;;;;;;;;;18.90;42.85;100183.95;103788;1286;61403;-84
2023/04/03 01:26:35;;;;;;;;;;;;;;;18.89;42.85;100184.54;103887;1289;73481;-83
2023/04/03 01:29:02;;;;;;;;;;;;;;;18.89;42.81;100182.91;103817;1291;74536;-84
2023/04/03 01:31:30;;;;;;;;;;;;;;;18.89;42.84;100184.52;103848;1286;61406;-83
2023/04/03 01:33:56;;;;;;;;;;;;;;;18.88;42.81;100186.54;103822;1289;62564;-83
2023/04/03 01:36:23;;;;;;;;;;;;;;;18.88;42.80;100187.25;103700;1286;61495;-84
2023/04/03 01:38:49;;;;;;;;;;;;;;;18.88;42.91;100187.44;103757;1291;75308;-84
2023/04/03 01:41:15;;;;;;;;;;;;;;;18.88;42.77;100191.70;103874;1291;61333;-83
2023/04/03 01:43:41;;;;;;;;;;;;;;;18.88;42.95;100191.01;103885;1286;61470;-84
2023/04/03 01:46:07;;;;;;;;;;;;;;;18.88;42.87;100193.50;103771;1292;62532;-84
2023/04/03 01:48:33;;;;;;;;;;;;;;;18.88;42.80;100189.58;103816;1299;61274;-83
2023/04/03 01:50:59;;;;;;;;;;;;;;;18.88;42.97;100190.83;103822;1292;62536;-84
2023/04/03 01:53:25;;;;;;;;;;;;;;;18.88;42.92;100191.38;103792;1292;61381;-83
2023/04/03 01:55:51;;;;;;;;;;;;;;;18.87;42.89;100184.83;103764;1286;62314;-83
2023/04/03 01:58:16;;;;;;;;;;;;;;;18.87;42.87;100187.85;103772;1292;71420;-83
2023/04/03 02:00:42;;;;;;;;;;;;;;;18.87;42.99;100193.03;103770;1300;61418;-83
2023/04/03 02:03:07;;;;;;;;;;;;;;;18.87;42.89;100199.45;104037;1286;62555;-83
2023/04/03 02:05:33;;;;;;;;;;;;;;;18.87;43.01;100197.67;104088;1286;61326;-83
2023/04/03 02:07:58;;;;;;;;;;;;;;;18.87;43.04;100194.65;103833;1291;61345;-84
2023/04/03 02:10:24;;;;;;;;;;;;;;;18.87;42.91;100200.17;103760;1291;72522;-84
2023/04/03 02:12:50;;;;;;;;;;;;;;;18.86;43.03;100201.81;103744;1286;61404;-84
2023/04/03 02:15:16;;;;;;;;;;;;;;;18.86;42.98;100206.61;103945;1296;61393;-83
2023/04/03 02:17:41;;;;;;;;;;;;;;;18.86;42.85;100205.56;103694;1293;61343;-84
2023/04/03 02:20:07;;;;;;;;;;;;;;;18.86;43.01;100207.73;103848;1289;61394;-83
2023/04/03 02:22:33;;;;;;;;;;;;;;;18.86;42.93;100204.15;103719;1289;61358;-83
2023/04/03 02:25:00;;;;;;;;;;;;;;;18.86;43.05;100200.79;103853;1292;61377;-83
2023/04/03 02:27:26;;;;;;;;;;;;;;;18.86;42.94;100201.30;103768;1291;61374;-83
2023/04/03 02:29:51;;;;;;;;;;;;;;;18.86;42.98;100201.31;103823;1288;61397;-83
2023/04/03 02:32:17;;;;;;;;;;;;;;;18.86;42.91;100201.31;103851;1287;61375;-84
2023/04/03 02:34:43;;;;;;;;;;;;;;;18.85;43.05;100202.75;103769;1289;61358;-84
2023/04/03 02:37:08;;;;;;;;;;;;;;;18.85;42.99;100203.85;103822;1286;61429;-84
2023/04/03 02:39:34;;;;;;;;;;;;;;;18.85;42.89;100201.71;103869;1286;61379;-84
2023/04/03 02:42:00;;;;;;;;;;;;;;;18.85;43.00;100199.77;103798;1286;61713;-84
2023/04/03 02:44:25;;;;;;;;;;;;;;;18.85;42.94;100202.27;103789;1286;61410;-84
2023/04/03 02:46:51;;;;;;;;;;;;;;;18.84;42.90;100203.55;103730;1286;61381;-83
2023/04/03 02:49:20;;;;;;;;;;;;;;;18.85;43.03;100205.34;103790;1299;61467;-83
2023/04/03 02:51:45;;;;;;;;;;;;;;;18.85;42.97;100208.70;103736;1291;61381;-84
2023/04/03 02:54:11;;;;;;;;;;;;;;;18.84;43.08;100207.85;103752;1292;61348;-84
2023/04/03 02:56:36;;;;;;;;;;;;;;;18.84;43.00;100209.63;103760;1292;62456;-84
2023/04/03 02:59:02;;;;;;;;;;;;;;;18.84;43.11;100211.98;103830;1286;61384;-83
2023/04/03 03:01:31;;;;;;;;;;;;;;;18.84;43.03;100214.46;103816;1292;62669;-84
2023/04/03 03:03:58;;;;;;;;;;;;;;;18.84;43.05;100213.58;103819;1292;61985;-84
2023/04/03 03:06:24;;;;;;;;;;;;;;;18.84;42.97;100218.23;103853;1290;73447;-84
2023/04/03 03:08:50;;;;;;;;;;;;;;;18.83;42.99;100222.86;103780;1286;61295;-85
2023/04/03 03:11:16;;;;;;;;;;;;;;;18.84;43.06;100223.57;103765;1292;61367;-84
2023/04/03 03:13:41;;;;;;;;;;;;;;;18.83;43.03;100220.02;103836;1292;61436;-83
2023/04/03 03:16:07;;;;;;;;;;;;;;;18.83;43.16;100221.11;103747;1286;61464;-84
2023/04/03 03:18:32;;;;;;;;;;;;;;;18.83;43.13;100222.37;103811;1286;61384;-83
2023/04/03 03:21:01;;;;;;;;;;;;;;;18.82;43.08;100220.98;103808;1287;74424;-84
2023/04/03 03:23:26;;;;;;;;;;;;;;;18.82;43.10;100223.13;103812;1291;61451;-83
2023/04/03 03:26:02;;;;;;;;;;;;;;;18.82;43.00;100226.88;103811;1289;61366;-83
2023/04/03 03:28:28;;;;;;;;;;;;;;;18.82;43.21;100229.73;103767;1291;73479;-84
2023/04/03 03:30:55;;;;;;;;;;;;;;;18.82;43.09;100235.30;103795;1286;61452;-84
2023/04/03 03:33:20;;;;;;;;;;;;;;;18.82;43.08;100238.67;103915;1286;61393;-83
2023/04/03 03:35:46;;;;;;;;;;;;;;;18.82;43.14;100238.87;103868;1289;61388;-83
2023/04/03 03:38:12;;;;;;;;;;;;;;;18.81;42.99;100239.24;103768;1286;61326;-84
2023/04/03 03:40:39;;;;;;;;;;;;;;;18.81;43.13;100239.80;103742;1289;61433;-84
2023/04/03 03:43:05;;;;;;;;;;;;;;;18.81;43.12;100238.92;103851;1291;61390;-84
2023/04/03 03:45:31;;;;;;;;;;;;;;;18.81;43.08;100242.84;103779;1286;61426;-85
2023/04/03 03:47:56;;;;;;;;;;;;;;;18.81;43.15;100242.14;103741;1286;61528;-84
2023/04/03 03:50:22;;;;;;;;;;;;;;;18.81;43.19;100243.38;103689;1285;72505;-83
2023/04/03 03:52:47;;;;;;;;;;;;;;;18.81;43.15;100243.05;103874;1286;61326;-84
2023/04/03 03:55:13;;;;;;;;;;;;;;;18.80;43.18;100243.80;103781;1291;61403;-84
2023/04/03 03:57:38;;;;;;;;;;;;;;;18.80;43.02;100247.02;103808;1286;61361;-84
2023/04/03 04:00:04;;;;;;;;;;;;;;;18.79;43.04;100255.43;103858;1290;61384;-84
2023/04/03 04:02:31;;;;;;;;;;;;;;;18.79;43.03;100262.08;103687;1286;73817;-83
2023/04/03 04:04:57;;;;;;;;;;;;;;;18.76;43.05;100260.61;103755;1292;75587;-83
2023/04/03 04:07:22;;;;;;;;;;;;;;;18.74;43.05;100265.77;103862;1289;61409;-83
2023/04/03 04:09:48;;;;;;;;;;;;;;;18.72;43.05;100265.58;103808;1291;61484;-83
2023/04/03 04:12:13;;;;;;;;;;;;;;;18.70;43.00;100269.07;103949;1291;61451;-83
2023/04/03 04:14:39;;;;;;;;;;;;;;;18.70;43.01;100270.66;103905;1289;62061;-83
2023/04/03 04:17:05;;;;;;;;;;;;;;;18.71;42.98;100272.74;103851;1292;74495;-85
2023/04/03 04:19:30;;;;;;;;;;;;;;;18.73;42.98;100276.20;103882;1286;62506;-84
2023/04/03 04:21:55;;;;;;;;;;;;;;;18.74;42.86;100276.98;103871;1286;61300;-85
2023/04/03 04:24:22;;;;;;;;;;;;;;;18.77;42.78;100279.51;103991;1291;61380;-84
2023/04/03 04:26:48;;;;;;;;;;;;;;;18.80;42.83;100281.09;104534;1290;61474;-82
2023/04/03 04:29:13;;;;;;;;;;;;;;;18.83;42.89;100289.80;103985;1286;61358;-83
2023/04/03 04:31:39;;;;;;;;;;;;;;;18.85;42.65;100289.11;104073;1286;61476;-83
2023/04/03 04:34:04;;;;;;;;;;;;;;;18.87;42.78;100296.25;104012;1286;61409;-83
2023/04/03 04:36:32;;;;;;;;;;;;;;;18.89;42.59;100293.63;104087;1286;61314;-84
2023/04/03 04:38:58;;;;;;;;;;;;;;;18.92;42.49;100291.11;103831;1286;61407;-84
2023/04/03 04:41:23;;;;;;;;;;;;;;;18.91;42.41;100289.38;104023;1286;61304;-83
2023/04/03 04:43:49;;;;;;;;;;;;;;;18.88;42.32;100289.59;104341;1286;61378;-83
2023/04/03 04:46:16;;;;;;;;;;;;;;;18.82;42.13;100291.41;104283;1286;61285;-84
2023/04/03 04:48:41;;;;;;;;;;;;;;;18.78;42.25;100289.40;104602;1286;61391;-84
2023/04/03 04:51:07;;;;;;;;;;;;;;;18.75;42.25;100287.81;104673;1288;63515;-84
2023/04/03 04:53:32;;;;;;;;;;;;;;;18.74;42.11;100286.10;104312;1288;61268;-83
2023/04/03 04:55:58;;;;;;;;;;;;;;;18.72;42.09;100285.71;104760;1291;61311;-83
2023/04/03 04:58:23;;;;;;;;;;;;;;;18.69;42.21;100287.66;104604;1286;59611;-82
2023/04/03 05:00:49;;;;;;;;;;;;;;;18.66;42.17;100287.52;104733;1289;62528;-83
2023/04/03 05:03:15;;;;;;;;;;;;;;;18.64;42.19;100289.30;105007;1288;60698;-82
2023/04/03 05:05:40;;;;;;;;;;;;;;;18.60;42.20;100287.93;105038;1288;61376;-82
2023/04/03 05:08:06;;;;;;;;;;;;;;;18.57;42.08;100284.61;104900;1289;61317;-83
2023/04/03 05:10:31;;;;;;;;;;;;;;;18.56;42.01;100276.66;105267;1286;63301;-82
2023/04/03 05:12:57;;;;;;;;;;;;;;;18.54;42.02;100282.66;104920;1288;61298;-82
2023/04/03 05:15:22;;;;;;;;;;;;;;;18.54;42.09;100284.29;104980;1288;61554;-82
2023/04/03 05:17:48;;;;;;;;;;;;;;;18.55;41.98;100284.93;104974;1286;61288;-82
2023/04/03 05:20:13;;;;;;;;;;;;;;;18.56;41.92;100287.69;104998;1289;61253;-82
2023/04/03 05:22:39;;;;;;;;;;;;;;;18.58;42.00;100291.98;104648;1286;61450;-82
2023/04/03 05:25:05;;;;;;;;;;;;;;;18.60;41.92;100295.29;104618;1290;62030;-82
2023/04/03 05:27:30;;;;;;;;;;;;;;;18.62;41.84;100299.07;104743;1288;61361;-82
2023/04/03 05:29:55;;;;;;;;;;;;;;;18.64;41.73;100300.92;104817;1286;59572;-81
2023/04/03 05:32:25;;;;;;;;;;;;;;;18.65;41.81;100302.98;104876;1286;61285;-83
2023/04/03 05:34:51;;;;;;;;;;;;;;;18.65;41.75;100302.45;104826;1289;73457;-82
2023/04/03 05:37:17;;;;;;;;;;;;;;;18.64;41.62;100303.70;104791;1291;61382;-81
2023/04/03 05:39:42;;;;;;;;;;;;;;;18.63;41.59;100307.21;104946;1286;61394;-81
2023/04/03 05:42:08;;;;;;;;;;;;;;;18.59;41.63;100315.64;104629;1289;59437;-82
2023/04/03 05:44:35;;;;;;;;;;;;;;;18.59;41.65;100323.51;104644;1289;61315;-83
2023/04/03 05:47:00;;;;;;;;;;;;;;;18.60;41.67;100328.27;104795;1289;61354;-81
2023/04/03 05:49:26;;;;;;;;;;;;;;;18.62;41.70;100330.63;105177;1288;61390;-82
2023/04/03 05:51:51;;;;;;;;;;;;;;;18.63;41.63;100330.52;105332;1286;61116;-81
2023/04/03 05:54:22;;;;;;;;;;;;;;;18.66;41.69;100333.02;105460;1291;59601;-81
2023/04/03 05:56:48;;;;;;;;;;;;;;;18.67;41.77;100335.24;105350;1286;72380;-81
2023/04/03 05:59:14;;;;;;;;;;;;;;;18.69;41.74;100335.61;105435;1286;59623;-82
2023/04/03 06:01:39;;;;;;;;;;;;;;;18.71;41.62;100342.63;105281;1286;61374;-82
2023/04/03 06:04:04;;;;;;;;;;;;;;;18.67;41.69;100352.19;105338;1285;63234;-82
2023/04/03 06:06:43;;;;;;;;;;;;;;;18.64;41.69;100352.07;105356;1286;61340;-82
2023/04/03 06:09:09;;;;;;;;;;;;;;;18.66;41.88;100362.77;105328;1289;72123;-82
2023/04/03 06:11:35;;;;;;;;;;;;;;;18.70;41.71;100367.45;105307;1288;61383;-82
2023/04/03 06:14:01;;;;;;;;;;;;;;;18.74;41.71;100371.64;105308;1286;59251;-83
2023/04/03 06:16:26;;;;;;;;;;;;;;;18.77;41.44;100373.27;105137;1286;59676;-82
2023/04/03 06:18:53;;;;;;;;;;;;;;;18.80;41.71;100377.36;105044;1289;61262;-82
2023/04/03 06:21:18;;;;;;;;;;;;;;;18.82;41.51;100375.92;104918;1291;63416;-82
2023/04/03 06:23:44;;;;;;;;;;;;;;;18.84;41.34;100375.99;104938;1286;61292;-82
2023/04/03 06:26:10;;;;;;;;;;;;;;;18.87;41.34;100377.95;104921;1285;61348;-83
2023/04/03 06:28:35;;;;;;;;;;;;;;;18.89;41.40;100386.39;105042;1286;59485;-82
2023/04/03 06:31:01;;;;;;;;;;;;;;;18.92;41.28;100394.20;105068;1286;61381;-82
2023/04/03 06:33:26;;;;;;;;;;;;;;;18.94;41.28;100392.81;104964;1286;61290;-82
2023/04/03 06:35:55;;;;;;;;;;;;;;;18.97;41.12;100390.12;104825;1288;62477;-82
2023/04/03 06:38:21;;;;;;;;;;;;;;;18.99;41.29;100391.61;104952;1286;61380;-82
2023/04/03 06:40:47;;;;;;;;;;;;;;;18.99;41.24;100391.60;105073;1286;61392;-82
2023/04/03 06:43:13;;;;;;;;;;;;;;;19.00;41.23;100397.23;105237;1286;61083;-82
2023/04/03 06:45:38;;;;;;;;;;;;;;;19.01;41.25;100406.83;105209;1286;61292;-82
2023/04/03 06:48:04;;;;;;;;;;;;;;;19.02;41.18;100409.39;105024;1288;61364;-82
2023/04/03 06:50:29;;;;;;;;;;;;;;;19.01;41.14;100411.23;104870;1286;59777;-82
2023/04/03 06:52:55;;;;;;;;;;;;;;;19.00;41.15;100416.48;105145;1286;61262;-82
2023/04/03 06:55:21;;;;;;;;;;;;;;;18.87;41.02;100418.61;105280;1291;61159;-81
2023/04/03 06:57:47;;;;;;;;;;;;;;;18.66;40.99;100425.55;105128;1289;61308;-82
2023/04/03 07:00:14;;;;;;;;;;;;;;;18.58;41.26;100428.87;105205;1286;60113;-82
2023/04/03 07:02:40;;;;;;;;;;;;;;;18.50;41.07;100433.48;105396;1285;61295;-82
2023/04/03 07:05:06;;;;;;;;;;;;;;;18.40;41.31;100435.77;104943;1286;624026;-81
2023/04/03 07:07:33;;;;;;;;;;;;;;;18.43;41.59;100441.06;105411;1286;59742;-81
2023/04/03 07:09:59;;;;;;;;;;;;;;;18.52;41.67;100447.62;106205;1286;59222;-83
2023/04/03 07:12:25;;;;;;;;;;;;;;;18.59;41.67;100451.83;106223;1286;59277;-82
2023/04/03 07:14:51;;;;;;;;;;;;;;;18.62;41.55;100464.27;106155;1286;59429;-81
2023/04/03 07:17:17;;;;;;;;;;;;;;;18.63;41.59;100461.16;106337;1285;59336;-80
2023/04/03 07:19:42;;;;;;;;;;;;;;;18.70;41.70;100461.80;106402;1288;59103;-81
2023/04/03 07:22:07;;;;;;;;;;;;;;;18.75;41.69;100464.83;105873;1289;60551;-81
2023/04/03 07:24:33;;;;;;;;;;;;;;;18.81;41.61;100465.33;105379;1286;59226;-81
2023/04/03 07:27:00;;;;;;;;;;;;;;;18.88;41.62;100470.96;105257;1286;59487;-83
2023/04/03 07:29:25;;;;;;;;;;;;;;;18.94;41.57;100475.94;105184;1286;61298;-83
2023/04/03 07:31:51;;;;;;;;;;;;;;;19.00;41.55;100480.91;105057;1286;61203;-84
2023/04/03 07:34:16;;;;;;;;;;;;;;;19.04;41.48;100484.51;105065;1286;61400;-84
2023/04/03 07:36:42;;;;;;;;;;;;;;;19.08;41.38;100488.16;104826;1286;61488;-84
2023/04/03 07:39:07;;;;;;;;;;;;;;;19.12;41.44;100491.32;104860;1286;61362;-84
2023/04/03 07:41:33;;;;;;;;;;;;;;;19.15;41.53;100493.44;104755;1286;61393;-84
2023/04/03 07:43:59;;;;;;;;;;;;;;;19.17;41.49;100495.05;104734;1286;61221;-82
2023/04/03 07:46:24;;;;;;;;;;;;;;;19.20;41.47;100496.27;104909;1286;61358;-84
2023/04/03 07:48:49;;;;;;;;;;;;;;;19.22;41.21;100500.21;104904;1286;61144;-83
2023/04/03 07:51:16;;;;;;;;;;;;;;;19.23;41.28;100502.85;104800;1285;61388;-83
2023/04/03 07:53:41;;;;;;;;;;;;;;;19.22;41.37;100502.20;104703;1286;61314;-83
2023/04/03 07:56:07;;;;;;;;;;;;;;;19.22;41.43;100501.68;104737;1286;61387;-83
2023/04/03 07:58:33;;;;;;;;;;;;;;;19.22;41.17;100496.31;104911;1288;60006;-82
2023/04/03 08:00:58;;;;;;;;;;;;;;;19.22;41.10;100491.48;104934;1286;61355;-82
2023/04/03 08:03:25;;;;;;;;;;;;;;;19.22;41.20;100489.73;105069;1286;72293;-83
2023/04/03 08:05:50;;;;;;;;;;;;;;;19.09;41.13;100486.88;104928;1286;60497;-83
2023/04/03 08:08:17;;;;;;;;;;;;;;;19.04;41.15;100484.15;105060;1286;61382;-83
2023/04/03 08:10:42;;;;;;;;;;;;;;;18.98;41.04;100488.65;105192;1286;61390;-83
2023/04/03 08:13:09;;;;;;;;;;;;;;;18.67;41.08;100490.86;105495;1289;59726;-83
2023/04/03 08:15:35;;;;;;;;;;;;;;;18.41;41.21;100487.92;105546;1285;61724;-83
2023/04/03 08:18:01;;;;;;;;;;;;;;;18.35;41.33;100487.40;105635;1286;59731;-83
2023/04/03 08:20:26;;;;;;;;;;;;;;;18.33;41.43;100487.52;105469;1286;61326;-83
2023/04/03 08:22:52;;;;;;;;;;;;;;;18.37;41.51;100483.52;105471;1286;60290;-84
2023/04/03 08:25:17;;;;;;;;;;;;;;;18.46;41.36;100475.14;105509;1286;73622;-82
2023/04/03 08:27:44;;;;;;;;;;;;;;;18.55;41.37;100475.45;105215;1289;61423;-82
2023/04/03 08:30:13;;;;;;;;;;;;;;;18.64;41.38;100473.45;105386;1286;61093;-82
2023/04/03 08:32:41;;;;;;;;;;;;;;;18.72;41.39;100479.47;105509;1286;61721;-82
2023/04/03 08:35:07;;;;;;;;;;;;;;;18.80;41.40;100470.91;105353;1286;72369;-83
2023/04/03 08:37:34;;;;;;;;;;;;;;;18.88;41.28;100465.06;105234;1285;61405;-82
2023/04/03 08:40:00;;;;;;;;;;;;;;;18.96;41.17;100463.45;105243;1285;60089;-82
2023/04/03 08:42:44;;;;;;;;;;;;;;;19.04;41.21;100460.28;105345;1285;60328;-83
2023/04/03 08:45:17;;;;;;;;;;;;;;;19.09;41.21;100462.21;105355;1285;72450;-83
2023/04/03 08:47:45;;;;;;;;;;;;;;;19.15;40.95;100466.34;105093;1285;74536;-82
2023/04/03 08:50:11;;;;;;;;;;;;;;;19.19;41.02;100469.73;105152;1290;61246;-83
2023/04/03 08:52:40;;;;;;;;;;;;;;;19.22;41.08;100474.01;104977;1286;61451;-83
2023/04/03 08:55:25;;;;;;;;;;;;;;;19.24;40.97;100475.30;105124;1286;72584;-83
2023/04/03 08:58:10;;;;;;;;;;;;;;;19.26;40.78;100482.30;105170;1286;74454;-83
2023/04/03 09:00:44;;;;;;;;;;;;;;;19.29;40.91;100481.04;105425;1286;59624;-83
2023/04/03 09:03:14;;;;;;;;;;;;;;;19.24;40.90;100480.52;105377;1288;60415;-81
2023/04/03 09:05:39;;;;;;;;;;;;;;;19.03;40.74;100480.11;105467;1286;71425;-83
2023/04/03 09:08:07;;;;;;;;;;;;;;;18.89;41.12;100483.00;105632;1286;61373;-82
2023/04/03 09:10:33;;;;;;;;;;;;;;;18.87;41.27;100479.20;105391;1286;61161;-83
2023/04/03 09:13:10;;;;;;;;;;;;;;;18.90;41.30;100476.20;105253;1285;61404;-84
2023/04/03 09:15:36;;;;;;;;;;;;;;;18.75;41.19;100467.72;105288;1286;72360;-83
2023/04/03 09:18:11;;;;;;;;;;;;;;;18.53;41.15;100465.56;105429;1286;61496;-84
2023/04/03 09:20:43;;;;;;;;;;;;;;;18.27;41.17;100464.39;105639;1286;59890;-87
2023/04/03 09:23:27;;;;;;;;;;;;;;;18.12;41.46;100452.77;105166;1286;61225;-83
2023/04/03 09:25:54;;;;;;;;;;;;;;;18.21;41.53;100460.00;105385;1288;73326;-84
2023/04/03 09:28:20;;;;;;;;;;;;;;;18.30;41.71;100453.36;106432;1288;74440;-84
2023/04/03 09:30:46;;;;;;;;;;;;;;;18.39;41.61;100450.98;105743;1286;61377;-84
2023/04/03 09:33:11;;;;;;;;;;;;;;;18.37;41.54;100449.52;105416;1286;59707;-83
2023/04/03 09:35:37;;;;;;;;;;;;;;;18.37;41.42;100448.08;105132;1291;60016;-83
2023/04/03 09:38:11;;;;;;;;;;;;;;;18.42;41.64;100447.05;105105;1291;61290;-82
2023/04/03 09:40:44;;;;;;;;;;;;;;;18.51;41.54;100448.94;105019;1290;76038;-83
2023/04/03 09:43:30;;;;;;;;;;;;;;;18.58;41.43;100446.71;104934;1286;63920;-83
2023/04/03 09:45:56;;;;;;;;;;;;;;;18.59;41.60;100443.45;104813;1288;61147;-83
2023/04/03 09:48:23;;;;;;;;;;;;;;;18.65;41.49;100441.96;105023;1291;70454;-83
2023/04/03 09:51:01;;;;;;;;;;;;;;;18.65;41.35;100450.00;104883;1285;75407;-82
2023/04/03 09:53:30;;;;;;;;;;;;;;;18.51;41.46;100453.95;106505;1285;60839;-83
2023/04/03 09:55:55;;;;;;;;;;;;;;;18.57;41.48;100450.48;106454;1286;60186;-83
2023/04/03 09:58:51;;;;;;;;;;;;;;;18.66;41.71;100451.01;104998;1285;61419;-82
2023/04/03 10:01:23;;;;;;;;;;;;;;;18.67;41.61;100452.89;104456;1292;74479;-82
2023/04/03 10:04:02;;;;;;;;;;;;;;;18.57;41.61;100446.77;104695;1292;61331;-85
2023/04/03 10:06:28;;;;;;;;;;;;;;;18.51;41.58;100446.48;105725;1292;61233;-84
2023/04/03 10:09:04;;;;;;;;;;;;;;;18.48;41.58;100433.81;105795;1292;59505;-83
2023/04/03 10:11:32;;;;;;;;;;;;;;;18.30;41.49;100426.42;105681;1291;74392;-83
2023/04/03 10:13:59;;;;;;;;;;;;;;;18.25;41.79;100428.71;105869;1291;60102;-83
2023/04/03 10:16:27;;;;;;;;;;;;;;;18.30;41.86;100436.30;105744;1292;60324;-84
2023/04/03 10:19:03;;;;;;;;;;;;;;;18.38;41.97;100437.88;104828;1291;73547;-83
2023/04/03 10:21:38;;;;;;;;;;;;;;;18.49;41.83;100432.87;104079;1291;74777;-84
2023/04/03 10:24:22;;;;;;;;;;;;;;;18.58;41.68;100427.82;103979;1292;61218;-83
2023/04/03 10:26:53;;;;;;;;;;;;;;;18.67;41.83;100426.88;104449;1291;60105;-85
2023/04/03 10:29:32;;;;;;;;;;;;;;;18.67;41.65;100433.65;104215;1292;72835;-84
2023/04/03 10:32:18;;;;;;;;;;;;;;;18.70;41.67;100440.19;104397;1291;75522;-83
2023/04/03 10:34:43;;;;;;;;;;;;;;;18.73;41.63;100447.27;104355;1294;61237;-83
2023/04/03 10:37:13;;;;;;;;;;;;;;;18.71;41.35;100450.65;103990;1297;61314;-82
2023/04/03 10:39:49;;;;;;;;;;;;;;;18.64;41.35;100440.23;104642;1287;72536;-83
2023/04/03 10:42:25;;;;;;;;;;;;;;;18.66;41.47;100427.86;104913;1285;74231;-81
2023/04/03 10:44:52;;;;;;;;;;;;;;;18.73;41.52;100433.94;104802;1286;63471;-82
2023/04/03 10:47:38;;;;;;;;;;;;;;;18.81;41.46;100426.12;104433;1286;61374;-81
2023/04/03 10:50:22;;;;;;;;;;;;;;;18.89;41.55;100423.05;105033;1286;72614;-83
2023/04/03 10:53:01;;;;;;;;;;;;;;;18.92;41.43;100415.63;105229;1286;74363;-82
2023/04/03 10:55:30;;;;;;;;;;;;;;;18.81;41.44;100426.12;105425;1286;61275;-83
2023/04/03 10:57:56;;;;;;;;;;;;;;;18.65;41.59;100427.16;106406;1285;60265;-82
2023/04/03 11:00:31;;;;;;;;;;;;;;;18.58;41.42;100425.35;106273;1285;59284;-83
2023/04/03 11:03:02;;;;;;;;;;;;;;;18.29;41.42;100422.96;106297;1286;74238;-83
2023/04/03 11:05:44;;;;;;;;;;;;;;;17.95;41.58;100423.86;106308;1286;59802;-83
2023/04/03 11:08:36;;;;;;;;;;;;;;;17.77;42.00;100416.41;106410;1285;60008;-83
2023/04/03 11:11:27;;;;;;;;;;;;;;;17.62;42.06;100414.57;106250;1285;72772;-83
2023/04/03 11:13:58;;;;;;;;;;;;;;;17.51;42.25;100411.83;106515;1286;75657;-84
2023/04/03 11:16:25;;;;;;;;;;;;;;;17.25;42.26;100409.88;106564;1286;59925;-83
2023/04/03 11:18:59;;;;;;;;;;;;;;;17.13;42.63;100408.48;106549;1286;58951;-83
2023/04/03 11:21:29;;;;;;;;;;;;;;;17.04;42.64;100411.84;106663;1286;72384;-85
2023/04/03 11:23:55;;;;;;;;;;;;;;;16.85;42.96;100409.04;105440;1286;74475;-83
2023/04/03 11:26:22;;;;;;;;;;;;;;;16.86;43.48;100412.20;105570;1285;61281;-83
2023/04/03 11:28:51;;;;;;;;;;;;;;;16.97;43.34;100418.35;105203;1286;61397;-82
2023/04/03 11:31:30;;;;;;;;;;;;;;;17.00;43.40;100413.33;104925;1285;73336;-82
2023/04/03 11:34:03;;;;;;;;;;;;;;;17.10;43.47;100410.09;104860;1286;74536;-84
2023/04/03 11:36:48;;;;;;;;;;;;;;;17.30;43.60;100411.36;104849;1285;61400;-82
2023/04/03 11:39:22;;;;;;;;;;;;;;;17.51;43.35;100405.23;105061;1286;61672;-82
2023/04/03 11:41:49;;;;;;;;;;;;;;;17.70;43.21;100400.11;104534;1286;73335;-82
2023/04/03 11:44:33;;;;;;;;;;;;;;;17.88;43.07;100401.53;104618;1286;63456;-82
2023/04/03 11:46:59;;;;;;;;;;;;;;;18.05;43.01;100399.20;104762;1286;61163;-81
2023/04/03 11:49:43;;;;;;;;;;;;;;;18.20;42.93;100401.48;104484;1286;61175;-82
2023/04/03 11:52:10;;;;;;;;;;;;;;;18.27;42.80;100403.47;104533;1286;72497;-82
2023/04/03 11:54:36;;;;;;;;;;;;;;;18.30;42.75;100405.98;104710;1285;61250;-83
2023/04/03 11:57:21;;;;;;;;;;;;;;;18.35;42.60;100402.43;105119;1286;61272;-82
2023/04/03 11:59:46;;;;;;;;;;;;;;;18.33;42.54;100390.83;105189;1285;60444;-82
2023/04/03 12:02:34;;;;;;;;;;;;;;;18.29;42.46;100386.25;105374;1288;60955;-83
2023/04/03 12:05:23;;;;;;;;;;;;;;;18.29;42.55;100389.31;105155;1286;73584;-83
2023/04/03 12:08:08;;;;;;;;;;;;;;;18.35;42.48;100390.33;105170;1286;61291;-83
2023/04/03 12:10:33;;;;;;;;;;;;;;;18.36;42.45;100391.89;104991;1286;61323;-82
2023/04/03 12:12:59;;;;;;;;;;;;;;;18.40;42.42;100391.40;105116;1286;61382;-82
2023/04/03 12:15:27;;;;;;;;;;;;;;;18.47;42.46;100390.08;104805;1286;61298;-82
2023/04/03 12:17:53;;;;;;;;;;;;;;;18.55;42.36;100387.41;104648;1291;61266;-81
2023/04/03 12:20:37;;;;;;;;;;;;;;;18.63;42.42;100381.18;104794;1285;61483;-82
2023/04/03 12:23:21;;;;;;;;;;;;;;;18.70;42.19;100379.63;104688;1285;73405;-82
2023/04/03 12:25:49;;;;;;;;;;;;;;;18.76;41.98;100381.53;104319;1285;75661;-82
2023/04/03 12:28:15;;;;;;;;;;;;;;;18.81;42.05;100372.29;104575;1285;60771;-82
2023/04/03 12:30:41;;;;;;;;;;;;;;;18.85;41.90;100366.27;104532;1286;59976;-82